Terminal Aerodrome Forecast
Issued by NWS

Home | Current Version | Previous Version | Text Only | Print | Product List | Glossary On
Versions: 1 2 3 4 5 6 7 8 9 10 11 12 13 14 15 16
000
FTUS46 KSGX 262320
TAFSNA
TAF
KSNA 262320Z 2700/2724 23008KT P6SM FEW250
     FM270300 VRB04KT P6SM FEW018 SCT200
     FM270600 VRB03KT P6SM OVC015
     FM271700 VRB04KT P6SM SCT020
     FM271900 22010KT P6SM FEW020=

USA.gov is the U.S. government's official web portal to all federal, state and local government web resources and services.